sensor_id;sensor_type;location;lat;lon;timestamp;pressure;altitude;pressure_sealevel;temperature;humidity
66887;BME280;67239;51.680;5.976;2023-04-01T00:00:48;99007.91;;;9.95;95.14
66887;BME280;67239;51.680;5.976;2023-04-01T00:03:15;99008.78;;;9.96;95.40
66887;BME280;67239;51.680;5.976;2023-04-01T00:05:43;99013.28;;;9.94;95.30
66887;BME280;67239;51.680;5.976;2023-04-01T00:08:11;99010.72;;;9.92;95.49
66887;BME280;67239;51.680;5.976;2023-04-01T00:10:38;99013.34;;;9.92;95.44
66887;BME280;67239;51.680;5.976;2023-04-01T00:13:06;99011.59;;;9.93;95.53
66887;BME280;67239;51.680;5.976;2023-04-01T00:15:34;99017.88;;;9.90;95.62
66887;BME280;67239;51.680;5.976;2023-04-01T00:18:01;99015.25;;;9.90;95.64
66887;BME280;67239;51.680;5.976;2023-04-01T00:20:29;99020.50;;;9.90;95.75
66887;BME280;67239;51.680;5.976;2023-04-01T00:22:56;99018.88;;;9.88;95.73
66887;BME280;67239;51.680;5.976;2023-04-01T00:25:24;99022.47;;;9.87;95.87
66887;BME280;67239;51.680;5.976;2023-04-01T00:27:51;99016.25;;;9.88;95.83
66887;BME280;67239;51.680;5.976;2023-04-01T00:30:18;99021.59;;;9.86;95.93
66887;BME280;67239;51.680;5.976;2023-04-01T00:32:45;99022.53;;;9.85;96.00
66887;BME280;67239;51.680;5.976;2023-04-01T00:35:13;99015.50;;;9.86;96.03
66887;BME280;67239;51.680;5.976;2023-04-01T00:37:40;99019.91;;;9.85;96.01
66887;BME280;67239;51.680;5.976;2023-04-01T00:40:08;99021.59;;;9.86;96.30
66887;BME280;67239;51.680;5.976;2023-04-01T00:42:51;99024.34;;;9.85;96.06
66887;BME280;67239;51.680;5.976;2023-04-01T00:45:27;99019.91;;;9.85;96.12
66887;BME280;67239;51.680;5.976;2023-04-01T00:48:02;99026.88;;;9.86;96.10
66887;BME280;67239;51.680;5.976;2023-04-01T00:50:34;99027.91;;;9.84;96.25
66887;BME280;67239;51.680;5.976;2023-04-01T00:53:05;99020.00;;;9.84;96.25
66887;BME280;67239;51.680;5.976;2023-04-01T00:55:38;99030.44;;;9.85;96.35
66887;BME280;67239;51.680;5.976;2023-04-01T00:58:14;99029.75;;;9.82;96.15
66887;BME280;67239;51.680;5.976;2023-04-01T01:00:46;99027.97;;;9.82;96.33
66887;BME280;67239;51.680;5.976;2023-04-01T01:03:15;99026.34;;;9.79;96.15
66887;BME280;67239;51.680;5.976;2023-04-01T01:06:10;99028.22;;;9.77;96.28
66887;BME280;67239;51.680;5.976;2023-04-01T01:11:44;99020.41;;;9.76;96.54
66887;BME280;67239;51.680;5.976;2023-04-01T01:14:40;99032.66;;;9.77;96.56
66887;BME280;67239;51.680;5.976;2023-04-01T01:17:48;99030.03;;;9.77;96.59
66887;BME280;67239;51.680;5.976;2023-04-01T01:27:11;99036.22;;;9.76;96.71
66887;BME280;67239;51.680;5.976;2023-04-01T01:30:01;99038.84;;;9.76;96.69
66887;BME280;67239;51.680;5.976;2023-04-01T01:33:27;99035.44;;;9.74;96.64
66887;BME280;67239;51.680;5.976;2023-04-01T01:35:59;99045.03;;;9.75;96.93
66887;BME280;67239;51.680;5.976;2023-04-01T01:38:33;99047.66;;;9.75;96.82
66887;BME280;67239;51.680;5.976;2023-04-01T01:41:05;99043.34;;;9.74;96.96
66887;BME280;67239;51.680;5.976;2023-04-01T01:43:43;99047.50;;;9.78;96.74
66887;BME280;67239;51.680;5.976;2023-04-01T01:46:18;99059.91;;;9.76;96.77
66887;BME280;67239;51.680;5.976;2023-04-01T01:48:50;99055.56;;;9.75;97.02
66887;BME280;67239;51.680;5.976;2023-04-01T01:51:20;99055.56;;;9.75;96.99
66887;BME280;67239;51.680;5.976;2023-04-01T01:53:49;99058.19;;;9.75;96.93
66887;BME280;67239;51.680;5.976;2023-04-01T01:56:21;99060.81;;;9.75;96.99
66887;BME280;67239;51.680;5.976;2023-04-01T01:58:58;99065.25;;;9.74;97.07
66887;BME280;67239;51.680;5.976;2023-04-01T02:01:33;99056.50;;;9.74;97.13
66887;BME280;67239;51.680;5.976;2023-04-01T02:04:11;99069.66;;;9.74;97.21
66887;BME280;67239;51.680;5.976;2023-04-01T02:06:47;99057.41;;;9.73;97.35
66887;BME280;67239;51.680;5.976;2023-04-01T02:09:20;99053.88;;;9.74;97.30
66887;BME280;67239;51.680;5.976;2023-04-01T02:11:51;99059.22;;;9.72;97.74
66887;BME280;67239;51.680;5.976;2023-04-01T02:14:25;99064.47;;;9.72;97.23
66887;BME280;67239;51.680;5.976;2023-04-01T02:19:34;99068.88;;;9.72;97.45
66887;BME280;67239;51.680;5.976;2023-04-01T02:22:11;99066.34;;;9.70;97.60
66887;BME280;67239;51.680;5.976;2023-04-01T02:24:43;99075.94;;;9.71;97.81
66887;BME280;67239;51.680;5.976;2023-04-01T02:27:12;99076.78;;;9.72;97.57
66887;BME280;67239;51.680;5.976;2023-04-01T02:29:39;99071.50;;;9.72;97.75
66887;BME280;67239;51.680;5.976;2023-04-01T02:32:08;99083.00;;;9.71;97.61
66887;BME280;67239;51.680;5.976;2023-04-01T02:34:36;99078.66;;;9.70;97.65
66887;BME280;67239;51.680;5.976;2023-04-01T02:37:04;99081.28;;;9.70;97.84
66887;BME280;67239;51.680;5.976;2023-04-01T02:39:31;99082.22;;;9.69;97.74
66887;BME280;67239;51.680;5.976;2023-04-01T02:41:58;99088.41;;;9.68;98.14
66887;BME280;67239;51.680;5.976;2023-04-01T02:44:28;99085.00;;;9.66;98.24
66887;BME280;67239;51.680;5.976;2023-04-01T02:46:55;99091.06;;;9.68;98.28
66887;BME280;67239;51.680;5.976;2023-04-01T02:49:22;99081.56;;;9.65;98.25
66887;BME280;67239;51.680;5.976;2023-04-01T02:51:49;99088.56;;;9.64;98.25
66887;BME280;67239;51.680;5.976;2023-04-01T02:54:18;99099.09;;;9.64;98.29
66887;BME280;67239;51.680;5.976;2023-04-01T02:56:46;99095.53;;;9.66;98.34
66887;BME280;67239;51.680;5.976;2023-04-01T02:59:13;99096.41;;;9.66;98.37
66887;BME280;67239;51.680;5.976;2023-04-01T03:01:40;99090.97;;;9.69;98.23
66887;BME280;67239;51.680;5.976;2023-04-01T03:04:08;99089.34;;;9.67;98.23
66887;BME280;67239;51.680;5.976;2023-04-01T03:06:35;99107.88;;;9.65;98.33
66887;BME280;67239;51.680;5.976;2023-04-01T03:09:02;99089.50;;;9.63;98.15
66887;BME280;67239;51.680;5.976;2023-04-01T03:11:30;99106.31;;;9.61;98.10
66887;BME280;67239;51.680;5.976;2023-04-01T03:13:57;99106.47;;;9.58;98.07
66887;BME280;67239;51.680;5.976;2023-04-01T03:16:24;99107.34;;;9.58;98.01
66887;BME280;67239;51.680;5.976;2023-04-01T03:18:51;99103.84;;;9.58;98.00
66887;BME280;67239;51.680;5.976;2023-04-01T03:21:22;99109.19;;;9.56;97.90
66887;BME280;67239;51.680;5.976;2023-04-01T03:23:50;99111.00;;;9.56;98.06
66887;BME280;67239;51.680;5.976;2023-04-01T03:26:18;99116.25;;;9.56;98.05
66887;BME280;67239;51.680;5.976;2023-04-01T03:28:45;99118.94;;;9.54;98.17
66887;BME280;67239;51.680;5.976;2023-04-01T03:31:12;99110.22;;;9.54;98.24
66887;BME280;67239;51.680;5.976;2023-04-01T03:33:46;99119.03;;;9.53;98.19
66887;BME280;67239;51.680;5.976;2023-04-01T03:36:14;99116.50;;;9.51;98.16
66887;BME280;67239;51.680;5.976;2023-04-01T03:38:42;99124.38;;;9.51;98.19
66887;BME280;67239;51.680;5.976;2023-04-01T03:41:14;99120.91;;;9.51;98.26
66887;BME280;67239;51.680;5.976;2023-04-01T03:43:43;99121.00;;;9.49;98.35
66887;BME280;67239;51.680;5.976;2023-04-01T03:46:12;99116.66;;;9.48;98.31
66887;BME280;67239;51.680;5.976;2023-04-01T03:48:44;99120.22;;;9.47;98.23
66887;BME280;67239;51.680;5.976;2023-04-01T03:51:11;99123.78;;;9.46;98.30
66887;BME280;67239;51.680;5.976;2023-04-01T03:53:38;99125.56;;;9.45;98.60
66887;BME280;67239;51.680;5.976;2023-04-01T03:56:06;99123.00;;;9.44;98.49
66887;BME280;67239;51.680;5.976;2023-04-01T03:58:36;99116.81;;;9.45;98.65
66887;BME280;67239;51.680;5.976;2023-04-01T04:01:21;99111.78;;;9.40;98.58
66887;BME280;67239;51.680;5.976;2023-04-01T04:03:52;99126.75;;;9.40;98.79
66887;BME280;67239;51.680;5.976;2023-04-01T04:06:22;99132.94;;;9.39;98.71
66887;BME280;67239;51.680;5.976;2023-04-01T04:08:51;99130.28;;;9.39;98.89
66887;BME280;67239;51.680;5.976;2023-04-01T04:11:19;99133.75;;;9.39;98.84
66887;BME280;67239;51.680;5.976;2023-04-01T04:14:09;99126.88;;;9.37;99.00
66887;BME280;67239;51.680;5.976;2023-04-01T04:16:56;99127.81;;;9.36;98.86
66887;BME280;67239;51.680;5.976;2023-04-01T04:19:43;99129.63;;;9.35;98.99
66887;BME280;67239;51.680;5.976;2023-04-01T04:22:31;99127.03;;;9.33;99.08
66887;BME280;67239;51.680;5.976;2023-04-01T04:25:18;99130.44;;;9.36;99.20
66887;BME280;67239;51.680;5.976;2023-04-01T04:28:05;99134.94;;;9.33;99.19
66887;BME280;67239;51.680;5.976;2023-04-01T04:30:54;99140.97;;;9.36;99.32
66887;BME280;67239;51.680;5.976;2023-04-01T04:33:41;99142.75;;;9.35;99.16
66887;BME280;67239;51.680;5.976;2023-04-01T04:36:27;99149.00;;;9.32;99.44
66887;BME280;67239;51.680;5.976;2023-04-01T04:39:15;99148.09;;;9.33;99.26
66887;BME280;67239;51.680;5.976;2023-04-01T04:42:03;99142.81;;;9.33;99.30
66887;BME280;67239;51.680;5.976;2023-04-01T04:44:30;99150.88;;;9.30;99.14
66887;BME280;67239;51.680;5.976;2023-04-01T04:46:59;99154.44;;;9.29;99.27
66887;BME280;67239;51.680;5.976;2023-04-01T04:49:26;99159.84;;;9.26;99.27
66887;BME280;67239;51.680;5.976;2023-04-01T04:51:54;99164.28;;;9.26;99.53
66887;BME280;67239;51.680;5.976;2023-04-01T04:54:24;99160.78;;;9.25;99.38
66887;BME280;67239;51.680;5.976;2023-04-01T04:56:54;99167.88;;;9.23;99.40
66887;BME280;67239;51.680;5.976;2023-04-01T04:59:23;99168.75;;;9.24;99.52
66887;BME280;67239;51.680;5.976;2023-04-01T05:01:58;99163.41;;;9.25;99.43
66887;BME280;67239;51.680;5.976;2023-04-01T05:04:25;99167.88;;;9.23;99.55
66887;BME280;67239;51.680;5.976;2023-04-01T05:06:53;99174.84;;;9.24;99.32
66887;BME280;67239;51.680;5.976;2023-04-01T05:09:20;99169.75;;;9.21;99.41
66887;BME280;67239;51.680;5.976;2023-04-01T05:11:47;99174.16;;;9.21;99.30
66887;BME280;67239;51.680;5.976;2023-04-01T05:14:17;99176.88;;;9.19;99.29
66887;BME280;67239;51.680;5.976;2023-04-01T05:16:53;99175.19;;;9.18;99.34
66887;BME280;67239;51.680;5.976;2023-04-01T05:19:21;99181.22;;;9.20;99.49
66887;BME280;67239;51.680;5.976;2023-04-01T05:21:48;99186.47;;;9.20;99.49
66887;BME280;67239;51.680;5.976;2023-04-01T05:24:15;99182.06;;;9.21;99.34
66887;BME280;67239;51.680;5.976;2023-04-01T05:26:43;99188.16;;;9.21;99.49
66887;BME280;67239;51.680;5.976;2023-04-01T05:29:11;99191.75;;;9.20;99.19
66887;BME280;67239;51.680;5.976;2023-04-01T05:31:39;99193.50;;;9.20;99.46
66887;BME280;67239;51.680;5.976;2023-04-01T05:34:06;99195.28;;;9.19;99.34
66887;BME280;67239;51.680;5.976;2023-04-01T05:36:33;99197.91;;;9.19;99.49
66887;BME280;67239;51.680;5.976;2023-04-01T05:39:01;99200.59;;;9.17;99.50
66887;BME280;67239;51.680;5.976;2023-04-01T05:41:28;99197.22;;;9.15;99.51
66887;BME280;67239;51.680;5.976;2023-04-01T05:43:55;99202.50;;;9.15;99.80
66887;BME280;67239;51.680;5.976;2023-04-01T05:46:43;99204.34;;;9.13;99.83
66887;BME280;67239;51.680;5.976;2023-04-01T05:49:25;99204.34;;;9.13;99.56
66887;BME280;67239;51.680;5.976;2023-04-01T05:51:55;99212.28;;;9.12;99.92
66887;BME280;67239;51.680;5.976;2023-04-01T05:54:23;99207.03;;;9.12;100.00
66887;BME280;67239;51.680;5.976;2023-04-01T05:56:50;99207.91;;;9.12;100.00
66887;BME280;67239;51.680;5.976;2023-04-01T05:59:19;99208.72;;;9.13;100.00
66887;BME280;67239;51.680;5.976;2023-04-01T06:01:46;99219.25;;;9.13;100.00
66887;BME280;67239;51.680;5.976;2023-04-01T06:04:16;99222.66;;;9.15;100.00
66887;BME280;67239;51.680;5.976;2023-04-01T06:06:45;99222.56;;;9.16;100.00
66887;BME280;67239;51.680;5.976;2023-04-01T06:09:18;99228.59;;;9.19;100.00
66887;BME280;67239;51.680;5.976;2023-04-01T06:18:12;99232.09;;;9.19;100.00
66887;BME280;67239;51.680;5.976;2023-04-01T06:21:33;99243.31;;;9.23;100.00
66887;BME280;67239;51.680;5.976;2023-04-01T06:24:28;99245.72;;;9.27;100.00
66887;BME280;67239;51.680;5.976;2023-04-01T06:30:29;99256.13;;;9.29;100.00
66887;BME280;67239;51.680;5.976;2023-04-01T06:36:14;99262.19;;;9.31;100.00
66887;BME280;67239;51.680;5.976;2023-04-01T06:48:53;99275.25;;;9.50;100.00
66887;BME280;67239;51.680;5.976;2023-04-01T06:55:26;99278.72;;;9.51;100.00
66887;BME280;67239;51.680;5.976;2023-04-01T06:58:26;99295.66;;;9.62;100.00
66887;BME280;67239;51.680;5.976;2023-04-01T07:00:58;99294.13;;;9.76;100.00
66887;BME280;67239;51.680;5.976;2023-04-01T07:03:30;99299.34;;;9.93;100.00
66887;BME280;67239;51.680;5.976;2023-04-01T07:06:08;99303.19;;;10.04;100.00
66887;BME280;67239;51.680;5.976;2023-04-01T07:08:50;99292.13;;;10.15;100.00
66887;BME280;67239;51.680;5.976;2023-04-01T07:11:29;99301.28;;;10.23;100.00
66887;BME280;67239;51.680;5.976;2023-04-01T07:14:22;99304.53;;;10.29;99.48
66887;BME280;67239;51.680;5.976;2023-04-01T07:17:01;99306.31;;;10.28;98.64
66887;BME280;67239;51.680;5.976;2023-04-01T07:19:41;99313.13;;;10.32;98.63
66887;BME280;67239;51.680;5.976;2023-04-01T07:22:35;99321.25;;;10.45;98.03
66887;BME280;67239;51.680;5.976;2023-04-01T07:25:23;99321.09;;;10.48;97.09
66887;BME280;67239;51.680;5.976;2023-04-01T07:28:43;99337.47;;;10.37;97.05
66887;BME280;67239;51.680;5.976;2023-04-01T07:38:03;99343.59;;;10.20;97.71
66887;BME280;67239;51.680;5.976;2023-04-01T07:41:06;99350.50;;;10.23;97.57
66887;BME280;67239;51.680;5.976;2023-04-01T07:46:53;99352.44;;;10.19;97.66
66887;BME280;67239;51.680;5.976;2023-04-01T07:52:26;99363.03;;;10.18;97.82
66887;BME280;67239;51.680;5.976;2023-04-01T07:55:14;99361.41;;;10.15;97.86
66887;BME280;67239;51.680;5.976;2023-04-01T07:58:00;99374.66;;;10.14;98.16
66887;BME280;67239;51.680;5.976;2023-04-01T08:04:29;99380.41;;;10.04;98.87
66887;BME280;67239;51.680;5.976;2023-04-01T08:07:35;99381.09;;;10.08;98.99
66887;BME280;67239;51.680;5.976;2023-04-01T08:10:49;99388.13;;;10.07;98.78
66887;BME280;67239;51.680;5.976;2023-04-01T08:17:44;99394.41;;;10.05;99.61
66887;BME280;67239;51.680;5.976;2023-04-01T08:23:24;99397.06;;;10.05;99.67
66887;BME280;67239;51.680;5.976;2023-04-01T08:29:14;99413.16;;;9.99;99.77
66887;BME280;67239;51.680;5.976;2023-04-01T08:34:28;99417.34;;;10.03;99.99
66887;BME280;67239;51.680;5.976;2023-04-01T08:37:14;99427.88;;;10.03;99.77
66887;BME280;67239;51.680;5.976;2023-04-01T08:39:59;99429.19;;;9.94;100.00
66887;BME280;67239;51.680;5.976;2023-04-01T08:45:49;99436.53;;;9.87;100.00
66887;BME280;67239;51.680;5.976;2023-04-01T08:58:26;99462.72;;;9.90;100.00
66887;BME280;67239;51.680;5.976;2023-04-01T09:10:53;99475.66;;;9.95;100.00
66887;BME280;67239;51.680;5.976;2023-04-01T09:26:06;99488.59;;;10.00;100.00
66887;BME280;67239;51.680;5.976;2023-04-01T09:40:42;99515.25;;;10.11;99.80
66887;BME280;67239;51.680;5.976;2023-04-01T09:43:57;99509.91;;;10.13;100.00
66887;BME280;67239;51.680;5.976;2023-04-01T09:49:52;99518.72;;;10.12;100.00
66887;BME280;67239;51.680;5.976;2023-04-01T09:52:52;99528.41;;;10.11;100.00
66887;BME280;67239;51.680;5.976;2023-04-01T09:59:20;99531.81;;;10.13;100.00
66887;BME280;67239;51.680;5.976;2023-04-01T10:08:56;99541.88;;;10.05;100.00
66887;BME280;67239;51.680;5.976;2023-04-01T10:11:45;99536.78;;;10.02;100.00
66887;BME280;67239;51.680;5.976;2023-04-01T10:18:01;99552.41;;;10.05;100.00
66887;BME280;67239;51.680;5.976;2023-04-01T10:24:25;99558.22;;;10.12;100.00
66887;BME280;67239;51.680;5.976;2023-04-01T10:27:34;99565.06;;;10.16;100.00
66887;BME280;67239;51.680;5.976;2023-04-01T10:33:42;99562.19;;;10.20;100.00
66887;BME280;67239;51.680;5.976;2023-04-01T10:39:52;99587.06;;;10.15;100.00
66887;BME280;67239;51.680;5.976;2023-04-01T10:46:52;99580.34;;;10.07;100.00
66887;BME280;67239;51.680;5.976;2023-04-01T10:56:08;99597.47;;;9.99;100.00
66887;BME280;67239;51.680;5.976;2023-04-01T11:06:43;99607.41;;;10.11;100.00
66887;BME280;67239;51.680;5.976;2023-04-01T11:29:58;99624.41;;;10.77;100.00
66887;BME280;67239;51.680;5.976;2023-04-01T11:35:47;99633.72;;;11.02;99.13
66887;BME280;67239;51.680;5.976;2023-04-01T11:38:35;99637.50;;;11.14;98.61
66887;BME280;67239;51.680;5.976;2023-04-01T11:44:32;99645.41;;;11.14;98.26
66887;BME280;67239;51.680;5.976;2023-04-01T11:47:38;99647.50;;;11.07;97.12
66887;BME280;67239;51.680;5.976;2023-04-01T11:53:42;99659.69;;;10.92;98.97
66887;BME280;67239;51.680;5.976;2023-04-01T11:56:47;99656.03;;;10.77;99.57
66887;BME280;67239;51.680;5.976;2023-04-01T11:59:42;99662.56;;;10.70;100.00
66887;BME280;67239;51.680;5.976;2023-04-01T12:02:33;99668.84;;;10.67;100.00
66887;BME280;67239;51.680;5.976;2023-04-01T12:05:54;99674.97;;;10.68;100.00
66887;BME280;67239;51.680;5.976;2023-04-01T12:14:05;99678.13;;;10.57;100.00
66887;BME280;67239;51.680;5.976;2023-04-01T12:16:49;99684.25;;;10.57;99.75
66887;BME280;67239;51.680;5.976;2023-04-01T12:22:32;99680.94;;;10.71;99.52
66887;BME280;67239;51.680;5.976;2023-04-01T12:31:30;99707.88;;;11.64;97.78
66887;BME280;67239;51.680;5.976;2023-04-01T12:37:31;99705.81;;;11.54;95.24
66887;BME280;67239;51.680;5.976;2023-04-01T12:40:36;99707.78;;;11.32;95.71
66887;BME280;67239;51.680;5.976;2023-04-01T12:51:44;99713.28;;;11.28;95.87
66887;BME280;67239;51.680;5.976;2023-04-01T13:16:08;99736.53;;;13.16;87.90
66887;BME280;67239;51.680;5.976;2023-04-01T13:24:46;99768.97;;;12.41;88.88
66887;BME280;67239;51.680;5.976;2023-04-01T13:27:34;99759.91;;;12.14;89.85
66887;BME280;67239;51.680;5.976;2023-04-01T13:36:18;99770.69;;;11.58;93.11
66887;BME280;67239;51.680;5.976;2023-04-01T13:39:15;99767.00;;;11.44;94.14
66887;BME280;67239;51.680;5.976;2023-04-01T13:45:12;99774.34;;;11.20;95.59
66887;BME280;67239;51.680;5.976;2023-04-01T13:51:01;99786.34;;;10.91;96.23
66887;BME280;67239;51.680;5.976;2023-04-01T14:05:53;99801.47;;;10.49;100.00
66887;BME280;67239;51.680;5.976;2023-04-01T14:08:33;99800.72;;;10.47;100.00
66887;BME280;67239;51.680;5.976;2023-04-01T14:17:17;99812.44;;;10.39;100.00
66887;BME280;67239;51.680;5.976;2023-04-01T14:20:36;99814.25;;;10.39;100.00
66887;BME280;67239;51.680;5.976;2023-04-01T14:31:42;99827.81;;;10.49;100.00
66887;BME280;67239;51.680;5.976;2023-04-01T14:40:45;99835.50;;;10.53;100.00
66887;BME280;67239;51.680;5.976;2023-04-01T14:49:24;99853.63;;;10.61;100.00
66887;BME280;67239;51.680;5.976;2023-04-01T14:52:10;99850.19;;;10.59;100.00
66887;BME280;67239;51.680;5.976;2023-04-01T14:54:41;99857.34;;;10.57;100.00
66887;BME280;67239;51.680;5.976;2023-04-01T14:57:11;99860.81;;;10.57;100.00
66887;BME280;67239;51.680;5.976;2023-04-01T14:59:48;99865.25;;;10.57;100.00
66887;BME280;67239;51.680;5.976;2023-04-01T15:11:43;99893.16;;;10.42;100.00
66887;BME280;67239;51.680;5.976;2023-04-01T15:20:28;99894.56;;;10.49;100.00
66887;BME280;67239;51.680;5.976;2023-04-01T15:26:42;99898.84;;;10.52;100.00
66887;BME280;67239;51.680;5.976;2023-04-01T15:32:14;99912.72;;;10.55;100.00
66887;BME280;67239;51.680;5.976;2023-04-01T15:38:08;99917.50;;;10.47;100.00
66887;BME280;67239;51.680;5.976;2023-04-01T15:41:03;99917.69;;;10.43;100.00
66887;BME280;67239;51.680;5.976;2023-04-01T15:49:34;99919.84;;;10.33;100.00
66887;BME280;67239;51.680;5.976;2023-04-01T15:55:01;99925.97;;;10.33;100.00
66887;BME280;67239;51.680;5.976;2023-04-01T16:15:35;99963.06;;;10.29;100.00
66887;BME280;67239;51.680;5.976;2023-04-01T16:18:22;99974.44;;;10.29;100.00
66887;BME280;67239;51.680;5.976;2023-04-01T16:24:15;99978.06;;;10.26;100.00
66887;BME280;67239;51.680;5.976;2023-04-01T16:30:01;99987.06;;;10.22;100.00
66887;BME280;67239;51.680;5.976;2023-04-01T16:32:54;99987.06;;;10.22;100.00
66887;BME280;67239;51.680;5.976;2023-04-01T16:43:53;100011.69;;;10.21;100.00
66887;BME280;67239;51.680;5.976;2023-04-01T16:46:40;100013.44;;;10.21;100.00
66887;BME280;67239;51.680;5.976;2023-04-01T16:54:50;100037.41;;;10.15;100.00
66887;BME280;67239;51.680;5.976;2023-04-01T16:57:56;100037.84;;;10.04;100.00
66887;BME280;67239;51.680;5.976;2023-04-01T17:00:28;100042.00;;;9.87;100.00
66887;BME280;67239;51.680;5.976;2023-04-01T17:08:49;100055.09;;;9.67;100.00
66887;BME280;67239;51.680;5.976;2023-04-01T17:18:02;100073.34;;;9.71;100.00
66887;BME280;67239;51.680;5.976;2023-04-01T17:20:43;100079.53;;;9.70;100.00
66887;BME280;67239;51.680;5.976;2023-04-01T17:23:36;100076.91;;;9.70;100.00
66887;BME280;67239;51.680;5.976;2023-04-01T17:26:26;100083.88;;;9.71;100.00
66887;BME280;67239;51.680;5.976;2023-04-01T17:35:03;100107.50;;;9.73;100.00
66887;BME280;67239;51.680;5.976;2023-04-01T17:43:58;100123.34;;;9.71;100.00
66887;BME280;67239;51.680;5.976;2023-04-01T17:53:03;100146.22;;;9.71;100.00
66887;BME280;67239;51.680;5.976;2023-04-01T17:58:44;100161.41;;;9.62;100.00
66887;BME280;67239;51.680;5.976;2023-04-01T18:01:40;100164.38;;;9.53;100.00
66887;BME280;67239;51.680;5.976;2023-04-01T18:04:40;100168.91;;;9.50;100.00
66887;BME280;67239;51.680;5.976;2023-04-01T18:07:33;100176.13;;;9.44;100.00
66887;BME280;67239;51.680;5.976;2023-04-01T18:13:15;100197.66;;;9.30;100.00
66887;BME280;67239;51.680;5.976;2023-04-01T18:16:28;100196.84;;;9.28;100.00
66887;BME280;67239;51.680;5.976;2023-04-01T18:19:17;100214.44;;;9.26;100.00
66887;BME280;67239;51.680;5.976;2023-04-01T18:22:15;100219.28;;;9.13;100.00
66887;BME280;67239;51.680;5.976;2023-04-01T18:27:50;100233.84;;;8.97;100.00
66887;BME280;67239;51.680;5.976;2023-04-01T18:30:28;100235.56;;;8.98;100.00
66887;BME280;67239;51.680;5.976;2023-04-01T18:33:15;100251.34;;;8.98;100.00
66887;BME280;67239;51.680;5.976;2023-04-01T18:44:53;100286.97;;;8.80;100.00
66887;BME280;67239;51.680;5.976;2023-04-01T18:47:47;100294.97;;;8.75;100.00
66887;BME280;67239;51.680;5.976;2023-04-01T18:50:51;100291.75;;;8.67;100.00
66887;BME280;67239;51.680;5.976;2023-04-01T18:56:07;100319.81;;;8.66;100.00
66887;BME280;67239;51.680;5.976;2023-04-01T19:01:52;100316.56;;;8.58;100.00
66887;BME280;67239;51.680;5.976;2023-04-01T19:04:43;100325.19;;;8.62;100.00
66887;BME280;67239;51.680;5.976;2023-04-01T19:10:22;100344.56;;;8.58;100.00
66887;BME280;67239;51.680;5.976;2023-04-01T19:13:48;100362.13;;;8.57;100.00
66887;BME280;67239;51.680;5.976;2023-04-01T19:16:33;100356.25;;;8.49;100.00
66887;BME280;67239;51.680;5.976;2023-04-01T19:19:13;100362.41;;;8.48;100.00
66887;BME280;67239;51.680;5.976;2023-04-01T19:21:58;100362.44;;;8.45;100.00
66887;BME280;67239;51.680;5.976;2023-04-01T19:24:51;100373.97;;;8.39;100.00
66887;BME280;67239;51.680;5.976;2023-04-01T19:27:48;100382.00;;;8.34;100.00
66887;BME280;67239;51.680;5.976;2023-04-01T19:33:25;100387.25;;;8.34;100.00
66887;BME280;67239;51.680;5.976;2023-04-01T19:39:27;100407.50;;;8.31;100.00
66887;BME280;67239;51.680;5.976;2023-04-01T19:42:29;100406.72;;;8.27;100.00
66887;BME280;67239;51.680;5.976;2023-04-01T19:45:33;100409.50;;;8.21;100.00
66887;BME280;67239;51.680;5.976;2023-04-01T19:50:56;100417.59;;;8.13;100.00
66887;BME280;67239;51.680;5.976;2023-04-01T19:53:37;100421.25;;;8.07;100.00
66887;BME280;67239;51.680;5.976;2023-04-01T19:56:19;100423.94;;;8.04;100.00
66887;BME280;67239;51.680;5.976;2023-04-01T20:01:37;100444.06;;;8.04;100.00
66887;BME280;67239;51.680;5.976;2023-04-01T20:04:16;100449.38;;;8.02;100.00
66887;BME280;67239;51.680;5.976;2023-04-01T20:06:59;100442.50;;;7.98;100.00
66887;BME280;67239;51.680;5.976;2023-04-01T20:09:52;100466.13;;;7.98;100.00
66887;BME280;67239;51.680;5.976;2023-04-01T20:12:47;100472.28;;;7.96;100.00
66887;BME280;67239;51.680;5.976;2023-04-01T20:15:33;100469.66;;;7.97;100.00
66887;BME280;67239;51.680;5.976;2023-04-01T20:18:32;100483.78;;;7.91;100.00
66887;BME280;67239;51.680;5.976;2023-04-01T20:24:06;100497.81;;;7.90;100.00
66887;BME280;67239;51.680;5.976;2023-04-01T20:26:51;100490.66;;;7.97;100.00
66887;BME280;67239;51.680;5.976;2023-04-01T20:40:59;100528.03;;;8.07;100.00
66887;BME280;67239;51.680;5.976;2023-04-01T20:44:03;100537.63;;;8.08;100.00
66887;BME280;67239;51.680;5.976;2023-04-01T20:46:48;100545.44;;;8.11;100.00
66887;BME280;67239;51.680;5.976;2023-04-01T20:52:49;100556.97;;;8.04;100.00
66887;BME280;67239;51.680;5.976;2023-04-01T20:55:52;100564.22;;;7.94;100.00
66887;BME280;67239;51.680;5.976;2023-04-01T21:02:10;100571.44;;;7.84;100.00
66887;BME280;67239;51.680;5.976;2023-04-01T21:05:11;100579.31;;;7.84;100.00
66887;BME280;67239;51.680;5.976;2023-04-01T21:10:47;100592.94;;;7.63;100.00
66887;BME280;67239;51.680;5.976;2023-04-01T21:13:41;100592.88;;;7.64;100.00
66887;BME280;67239;51.680;5.976;2023-04-01T21:22:49;100617.69;;;7.49;100.00
66887;BME280;67239;51.680;5.976;2023-04-01T21:25:33;100626.59;;;7.42;100.00
66887;BME280;67239;51.680;5.976;2023-04-01T21:28:22;100630.22;;;7.36;100.00
66887;BME280;67239;51.680;5.976;2023-04-01T21:31:12;100638.97;;;7.35;100.00
66887;BME280;67239;51.680;5.976;2023-04-01T21:34:01;100641.63;;;7.32;100.00
66887;BME280;67239;51.680;5.976;2023-04-01T21:40:25;100659.19;;;7.28;100.00
66887;BME280;67239;51.680;5.976;2023-04-01T22:04:10;100710.50;;;6.95;100.00
66887;BME280;67239;51.680;5.976;2023-04-01T22:10:09;100722.09;;;6.80;100.00
66887;BME280;67239;51.680;5.976;2023-04-01T22:18:46;100746.72;;;6.70;100.00
66887;BME280;67239;51.680;5.976;2023-04-01T22:21:47;100746.81;;;6.63;100.00
66887;BME280;67239;51.680;5.976;2023-04-01T22:24:53;100755.47;;;6.67;100.00
66887;BME280;67239;51.680;5.976;2023-04-01T22:30:24;100760.75;;;6.65;100.00
66887;BME280;67239;51.680;5.976;2023-04-01T22:36:31;100779.19;;;6.58;100.00
66887;BME280;67239;51.680;5.976;2023-04-01T22:39:23;100780.97;;;6.57;100.00